sensor_id;sensor_type;location;lat;lon;timestamp;temperature;humidity
12957;DHT22;6543;48.836;10.092;2024-02-16T00:01:08;10.10;99.90
12957;DHT22;6543;48.836;10.092;2024-02-16T00:03:35;10.10;99.90
12957;DHT22;6543;48.836;10.092;2024-02-16T00:06:02;10.10;99.90
12957;DHT22;6543;48.836;10.092;2024-02-16T00:08:29;10.20;99.90
12957;DHT22;6543;48.836;10.092;2024-02-16T00:10:56;10.20;99.90
12957;DHT22;6543;48.836;10.092;2024-02-16T00:13:23;10.20;99.90
12957;DHT22;6543;48.836;10.092;2024-02-16T00:15:50;10.10;99.90
12957;DHT22;6543;48.836;10.092;2024-02-16T00:18:18;10.10;99.90
12957;DHT22;6543;48.836;10.092;2024-02-16T00:20:45;10.00;99.90
12957;DHT22;6543;48.836;10.092;2024-02-16T00:23:12;10.10;99.90
12957;DHT22;6543;48.836;10.092;2024-02-16T00:25:39;10.10;99.90
12957;DHT22;6543;48.836;10.092;2024-02-16T00:30:33;10.30;99.90
12957;DHT22;6543;48.836;10.092;2024-02-16T00:33:02;10.10;99.90
12957;DHT22;6543;48.836;10.092;2024-02-16T00:35:30;10.20;99.90
12957;DHT22;6543;48.836;10.092;2024-02-16T00:37:58;10.10;99.90
12957;DHT22;6543;48.836;10.092;2024-02-16T00:40:25;10.30;99.90
12957;DHT22;6543;48.836;10.092;2024-02-16T00:42:52;10.00;99.90
12957;DHT22;6543;48.836;10.092;2024-02-16T00:45:19;10.00;99.90
12957;DHT22;6543;48.836;10.092;2024-02-16T00:47:46;10.10;99.90
12957;DHT22;6543;48.836;10.092;2024-02-16T00:50:14;10.30;99.90
12957;DHT22;6543;48.836;10.092;2024-02-16T00:52:42;10.20;99.90
12957;DHT22;6543;48.836;10.092;2024-02-16T00:55:10;10.10;99.90
12957;DHT22;6543;48.836;10.092;2024-02-16T00:57:38;10.20;99.90
12957;DHT22;6543;48.836;10.092;2024-02-16T01:00:06;10.00;99.90
12957;DHT22;6543;48.836;10.092;2024-02-16T01:02:34;9.90;99.90
12957;DHT22;6543;48.836;10.092;2024-02-16T01:05:01;9.90;99.90
12957;DHT22;6543;48.836;10.092;2024-02-16T01:07:28;9.90;99.90
12957;DHT22;6543;48.836;10.092;2024-02-16T01:09:57;9.80;99.90
12957;DHT22;6543;48.836;10.092;2024-02-16T01:12:25;9.80;99.90
12957;DHT22;6543;48.836;10.092;2024-02-16T01:14:52;9.80;99.90
12957;DHT22;6543;48.836;10.092;2024-02-16T01:17:19;9.90;99.90
12957;DHT22;6543;48.836;10.092;2024-02-16T01:19:45;9.90;99.90
12957;DHT22;6543;48.836;10.092;2024-02-16T01:22:12;9.80;99.90
12957;DHT22;6543;48.836;10.092;2024-02-16T01:24:39;9.90;99.90
12957;DHT22;6543;48.836;10.092;2024-02-16T01:27:07;9.90;99.90
12957;DHT22;6543;48.836;10.092;2024-02-16T01:29:34;9.90;99.90
12957;DHT22;6543;48.836;10.092;2024-02-16T01:32:01;9.80;99.90
12957;DHT22;6543;48.836;10.092;2024-02-16T01:34:28;9.80;99.90
12957;DHT22;6543;48.836;10.092;2024-02-16T01:36:55;9.80;99.90
12957;DHT22;6543;48.836;10.092;2024-02-16T01:39:22;9.80;99.90
12957;DHT22;6543;48.836;10.092;2024-02-16T01:41:49;10.00;99.90
12957;DHT22;6543;48.836;10.092;2024-02-16T01:44:17;10.10;99.90
12957;DHT22;6543;48.836;10.092;2024-02-16T01:46:44;10.10;99.90
12957;DHT22;6543;48.836;10.092;2024-02-16T01:49:11;10.10;99.90
12957;DHT22;6543;48.836;10.092;2024-02-16T01:51:40;10.10;99.90
12957;DHT22;6543;48.836;10.092;2024-02-16T01:54:07;10.10;99.90
12957;DHT22;6543;48.836;10.092;2024-02-16T01:56:34;10.10;99.90
12957;DHT22;6543;48.836;10.092;2024-02-16T01:59:01;10.00;99.90
12957;DHT22;6543;48.836;10.092;2024-02-16T02:01:29;10.00;99.90
12957;DHT22;6543;48.836;10.092;2024-02-16T02:03:56;9.90;99.90
12957;DHT22;6543;48.836;10.092;2024-02-16T02:06:23;9.90;99.90
12957;DHT22;6543;48.836;10.092;2024-02-16T02:08:50;9.90;99.90
12957;DHT22;6543;48.836;10.092;2024-02-16T02:11:17;9.80;99.90
12957;DHT22;6543;48.836;10.092;2024-02-16T02:13:43;9.90;99.90
12957;DHT22;6543;48.836;10.092;2024-02-16T02:16:10;9.70;99.90
12957;DHT22;6543;48.836;10.092;2024-02-16T02:18:39;9.70;99.90
12957;DHT22;6543;48.836;10.092;2024-02-16T02:21:06;9.60;99.90
12957;DHT22;6543;48.836;10.092;2024-02-16T02:23:34;9.50;99.90
12957;DHT22;6543;48.836;10.092;2024-02-16T02:26:08;9.50;99.90
12957;DHT22;6543;48.836;10.092;2024-02-16T02:28:34;9.40;99.90
12957;DHT22;6543;48.836;10.092;2024-02-16T02:31:01;9.30;99.90
12957;DHT22;6543;48.836;10.092;2024-02-16T02:33:28;9.30;99.90
12957;DHT22;6543;48.836;10.092;2024-02-16T02:35:55;9.30;99.90
12957;DHT22;6543;48.836;10.092;2024-02-16T02:38:22;9.30;99.90
12957;DHT22;6543;48.836;10.092;2024-02-16T02:40:50;9.20;99.90
12957;DHT22;6543;48.836;10.092;2024-02-16T02:43:17;9.20;99.90
12957;DHT22;6543;48.836;10.092;2024-02-16T02:45:45;9.20;99.90
12957;DHT22;6543;48.836;10.092;2024-02-16T02:48:11;9.10;99.90
12957;DHT22;6543;48.836;10.092;2024-02-16T02:50:38;9.00;99.90
12957;DHT22;6543;48.836;10.092;2024-02-16T02:53:05;9.00;99.90
12957;DHT22;6543;48.836;10.092;2024-02-16T02:55:31;9.00;99.90
12957;DHT22;6543;48.836;10.092;2024-02-16T02:58:00;8.90;99.90
12957;DHT22;6543;48.836;10.092;2024-02-16T03:00:27;8.80;99.90
12957;DHT22;6543;48.836;10.092;2024-02-16T03:02:53;8.80;99.90
12957;DHT22;6543;48.836;10.092;2024-02-16T03:05:21;8.90;99.90
12957;DHT22;6543;48.836;10.092;2024-02-16T03:07:47;8.90;99.90
12957;DHT22;6543;48.836;10.092;2024-02-16T03:10:14;8.90;99.90
12957;DHT22;6543;48.836;10.092;2024-02-16T03:12:46;8.80;99.90
12957;DHT22;6543;48.836;10.092;2024-02-16T03:15:16;8.90;99.90
12957;DHT22;6543;48.836;10.092;2024-02-16T03:17:43;8.90;99.90
12957;DHT22;6543;48.836;10.092;2024-02-16T03:20:10;8.90;99.90
12957;DHT22;6543;48.836;10.092;2024-02-16T03:22:37;9.00;99.90
12957;DHT22;6543;48.836;10.092;2024-02-16T03:25:04;9.00;99.90
12957;DHT22;6543;48.836;10.092;2024-02-16T03:27:31;9.00;99.90
12957;DHT22;6543;48.836;10.092;2024-02-16T03:29:58;9.00;99.90
12957;DHT22;6543;48.836;10.092;2024-02-16T03:32:26;9.00;99.90
12957;DHT22;6543;48.836;10.092;2024-02-16T03:34:53;9.00;99.90
12957;DHT22;6543;48.836;10.092;2024-02-16T03:37:20;8.90;99.90
12957;DHT22;6543;48.836;10.092;2024-02-16T03:39:46;8.90;99.90
12957;DHT22;6543;48.836;10.092;2024-02-16T03:42:13;9.00;99.90
12957;DHT22;6543;48.836;10.092;2024-02-16T03:44:40;8.90;99.90
12957;DHT22;6543;48.836;10.092;2024-02-16T03:47:07;8.90;99.90
12957;DHT22;6543;48.836;10.092;2024-02-16T03:49:35;9.10;99.90
12957;DHT22;6543;48.836;10.092;2024-02-16T03:52:02;8.90;99.90
12957;DHT22;6543;48.836;10.092;2024-02-16T03:54:29;8.90;99.90
12957;DHT22;6543;48.836;10.092;2024-02-16T03:56:56;9.00;99.90
12957;DHT22;6543;48.836;10.092;2024-02-16T03:59:23;9.00;99.90
12957;DHT22;6543;48.836;10.092;2024-02-16T04:01:51;9.00;99.90
12957;DHT22;6543;48.836;10.092;2024-02-16T04:04:18;9.10;99.90
12957;DHT22;6543;48.836;10.092;2024-02-16T04:06:46;9.00;99.90
12957;DHT22;6543;48.836;10.092;2024-02-16T04:09:13;9.00;99.90
12957;DHT22;6543;48.836;10.092;2024-02-16T04:11:39;8.90;99.90
12957;DHT22;6543;48.836;10.092;2024-02-16T04:14:06;8.90;99.90
12957;DHT22;6543;48.836;10.092;2024-02-16T04:16:33;8.90;99.90
12957;DHT22;6543;48.836;10.092;2024-02-16T04:19:00;8.90;99.90
12957;DHT22;6543;48.836;10.092;2024-02-16T04:21:27;8.90;99.90
12957;DHT22;6543;48.836;10.092;2024-02-16T04:23:55;8.90;99.90
12957;DHT22;6543;48.836;10.092;2024-02-16T04:26:22;8.90;99.90
12957;DHT22;6543;48.836;10.092;2024-02-16T04:28:49;8.80;99.90
12957;DHT22;6543;48.836;10.092;2024-02-16T04:31:15;8.90;99.90
12957;DHT22;6543;48.836;10.092;2024-02-16T04:33:42;8.90;99.90
12957;DHT22;6543;48.836;10.092;2024-02-16T04:36:09;9.00;99.90
12957;DHT22;6543;48.836;10.092;2024-02-16T04:38:36;8.80;99.90
12957;DHT22;6543;48.836;10.092;2024-02-16T04:41:06;8.80;99.90
12957;DHT22;6543;48.836;10.092;2024-02-16T04:43:33;8.80;99.90
12957;DHT22;6543;48.836;10.092;2024-02-16T04:46:00;8.90;99.90
12957;DHT22;6543;48.836;10.092;2024-02-16T04:48:27;8.80;99.90
12957;DHT22;6543;48.836;10.092;2024-02-16T04:50:54;8.80;99.90
12957;DHT22;6543;48.836;10.092;2024-02-16T04:53:21;8.80;99.90
12957;DHT22;6543;48.836;10.092;2024-02-16T04:55:48;8.70;99.90
12957;DHT22;6543;48.836;10.092;2024-02-16T04:58:16;8.70;99.90
12957;DHT22;6543;48.836;10.092;2024-02-16T05:00:42;8.70;99.90
12957;DHT22;6543;48.836;10.092;2024-02-16T05:03:12;8.70;99.90
12957;DHT22;6543;48.836;10.092;2024-02-16T05:05:39;8.70;99.90
12957;DHT22;6543;48.836;10.092;2024-02-16T05:08:06;8.70;99.90
12957;DHT22;6543;48.836;10.092;2024-02-16T05:10:33;8.70;99.90
12957;DHT22;6543;48.836;10.092;2024-02-16T05:13:00;8.70;99.90
12957;DHT22;6543;48.836;10.092;2024-02-16T05:15:28;8.70;99.90
12957;DHT22;6543;48.836;10.092;2024-02-16T05:17:54;8.60;99.90
12957;DHT22;6543;48.836;10.092;2024-02-16T05:20:21;8.50;99.90
12957;DHT22;6543;48.836;10.092;2024-02-16T05:22:48;8.60;99.90
12957;DHT22;6543;48.836;10.092;2024-02-16T05:25:15;8.60;99.90
12957;DHT22;6543;48.836;10.092;2024-02-16T05:27:43;8.70;99.90
12957;DHT22;6543;48.836;10.092;2024-02-16T05:30:11;8.70;99.90
12957;DHT22;6543;48.836;10.092;2024-02-16T05:32:41;8.70;99.90
12957;DHT22;6543;48.836;10.092;2024-02-16T05:35:08;8.70;99.90
12957;DHT22;6543;48.836;10.092;2024-02-16T05:37:38;8.70;99.90
12957;DHT22;6543;48.836;10.092;2024-02-16T05:40:08;8.80;99.90
12957;DHT22;6543;48.836;10.092;2024-02-16T05:42:47;8.80;99.90
12957;DHT22;6543;48.836;10.092;2024-02-16T05:45:14;8.80;99.90
12957;DHT22;6543;48.836;10.092;2024-02-16T05:47:43;8.70;99.90
12957;DHT22;6543;48.836;10.092;2024-02-16T05:50:11;8.70;99.90
12957;DHT22;6543;48.836;10.092;2024-02-16T05:52:38;8.80;99.90
12957;DHT22;6543;48.836;10.092;2024-02-16T05:55:06;8.80;99.90
12957;DHT22;6543;48.836;10.092;2024-02-16T05:57:33;8.80;99.90
12957;DHT22;6543;48.836;10.092;2024-02-16T06:00:00;8.80;99.90
12957;DHT22;6543;48.836;10.092;2024-02-16T06:02:29;8.70;99.90
12957;DHT22;6543;48.836;10.092;2024-02-16T06:04:57;8.90;99.90
12957;DHT22;6543;48.836;10.092;2024-02-16T06:07:24;8.90;99.90
12957;DHT22;6543;48.836;10.092;2024-02-16T06:09:51;8.90;99.90
12957;DHT22;6543;48.836;10.092;2024-02-16T06:12:19;8.80;99.90
12957;DHT22;6543;48.836;10.092;2024-02-16T06:14:46;8.80;99.90
12957;DHT22;6543;48.836;10.092;2024-02-16T06:17:13;8.80;99.90
12957;DHT22;6543;48.836;10.092;2024-02-16T06:19:40;8.90;99.90
12957;DHT22;6543;48.836;10.092;2024-02-16T06:22:09;8.90;99.90
12957;DHT22;6543;48.836;10.092;2024-02-16T06:24:36;9.00;99.90
12957;DHT22;6543;48.836;10.092;2024-02-16T06:27:04;9.00;99.90
12957;DHT22;6543;48.836;10.092;2024-02-16T06:29:31;9.00;99.90
12957;DHT22;6543;48.836;10.092;2024-02-16T06:31:57;8.90;99.90
12957;DHT22;6543;48.836;10.092;2024-02-16T06:34:24;9.00;99.90
12957;DHT22;6543;48.836;10.092;2024-02-16T06:36:51;8.90;99.90
12957;DHT22;6543;48.836;10.092;2024-02-16T06:39:19;8.80;99.90
12957;DHT22;6543;48.836;10.092;2024-02-16T06:41:46;8.90;99.90
12957;DHT22;6543;48.836;10.092;2024-02-16T06:44:14;8.80;99.90
12957;DHT22;6543;48.836;10.092;2024-02-16T06:46:41;8.90;99.90
12957;DHT22;6543;48.836;10.092;2024-02-16T06:49:09;8.90;99.90
12957;DHT22;6543;48.836;10.092;2024-02-16T06:51:36;9.00;99.90
12957;DHT22;6543;48.836;10.092;2024-02-16T06:54:03;8.90;99.90
12957;DHT22;6543;48.836;10.092;2024-02-16T06:56:31;8.90;99.90
12957;DHT22;6543;48.836;10.092;2024-02-16T06:58:59;8.90;99.90
12957;DHT22;6543;48.836;10.092;2024-02-16T07:01:25;8.30;99.90
12957;DHT22;6543;48.836;10.092;2024-02-16T07:03:53;8.90;99.90
12957;DHT22;6543;48.836;10.092;2024-02-16T07:06:20;8.90;99.90
12957;DHT22;6543;48.836;10.092;2024-02-16T07:08:46;8.90;99.90
12957;DHT22;6543;48.836;10.092;2024-02-16T07:11:13;8.90;99.90
12957;DHT22;6543;48.836;10.092;2024-02-16T07:13:41;9.00;99.90
12957;DHT22;6543;48.836;10.092;2024-02-16T07:16:09;9.00;99.90
12957;DHT22;6543;48.836;10.092;2024-02-16T07:18:35;9.00;99.90
12957;DHT22;6543;48.836;10.092;2024-02-16T07:21:03;9.10;99.90
12957;DHT22;6543;48.836;10.092;2024-02-16T07:23:30;9.10;99.90
12957;DHT22;6543;48.836;10.092;2024-02-16T07:25:57;9.20;99.90
12957;DHT22;6543;48.836;10.092;2024-02-16T07:28:24;9.30;99.90
12957;DHT22;6543;48.836;10.092;2024-02-16T07:30:53;9.40;99.90
12957;DHT22;6543;48.836;10.092;2024-02-16T07:33:20;9.30;99.90
12957;DHT22;6543;48.836;10.092;2024-02-16T07:35:50;9.40;99.90
12957;DHT22;6543;48.836;10.092;2024-02-16T07:38:17;9.40;99.90
12957;DHT22;6543;48.836;10.092;2024-02-16T07:40:47;10.00;99.90
12957;DHT22;6543;48.836;10.092;2024-02-16T07:43:16;9.50;99.90
12957;DHT22;6543;48.836;10.092;2024-02-16T07:45:43;10.50;99.90
12957;DHT22;6543;48.836;10.092;2024-02-16T07:48:11;9.50;99.90
12957;DHT22;6543;48.836;10.092;2024-02-16T07:50:38;9.60;99.90
12957;DHT22;6543;48.836;10.092;2024-02-16T07:53:05;9.60;99.90
12957;DHT22;6543;48.836;10.092;2024-02-16T07:55:32;9.60;99.90
12957;DHT22;6543;48.836;10.092;2024-02-16T07:57:59;10.60;99.90
12957;DHT22;6543;48.836;10.092;2024-02-16T08:00:26;9.60;99.90
12957;DHT22;6543;48.836;10.092;2024-02-16T08:02:54;9.60;99.90
12957;DHT22;6543;48.836;10.092;2024-02-16T08:05:22;9.60;99.90
12957;DHT22;6543;48.836;10.092;2024-02-16T08:07:50;9.70;99.90
12957;DHT22;6543;48.836;10.092;2024-02-16T08:10:19;9.70;99.90
12957;DHT22;6543;48.836;10.092;2024-02-16T08:12:47;9.90;99.90
12957;DHT22;6543;48.836;10.092;2024-02-16T08:15:14;10.60;99.90
12957;DHT22;6543;48.836;10.092;2024-02-16T08:17:48;10.00;99.90
12957;DHT22;6543;48.836;10.092;2024-02-16T08:20:15;10.10;99.90
12957;DHT22;6543;48.836;10.092;2024-02-16T08:22:44;10.30;99.90
12957;DHT22;6543;48.836;10.092;2024-02-16T08:25:11;10.40;99.90
12957;DHT22;6543;48.836;10.092;2024-02-16T08:27:38;10.50;99.90
12957;DHT22;6543;48.836;10.092;2024-02-16T08:30:06;10.70;99.90
12957;DHT22;6543;48.836;10.092;2024-02-16T08:32:34;10.90;99.90
12957;DHT22;6543;48.836;10.092;2024-02-16T08:35:01;11.10;99.90
12957;DHT22;6543;48.836;10.092;2024-02-16T08:37:28;11.30;99.90
12957;DHT22;6543;48.836;10.092;2024-02-16T08:39:58;12.80;99.90
12957;DHT22;6543;48.836;10.092;2024-02-16T08:42:25;11.60;99.90
12957;DHT22;6543;48.836;10.092;2024-02-16T08:44:53;12.70;99.90
12957;DHT22;6543;48.836;10.092;2024-02-16T08:47:19;11.90;99.90
12957;DHT22;6543;48.836;10.092;2024-02-16T08:49:47;12.20;99.90
12957;DHT22;6543;48.836;10.092;2024-02-16T08:52:14;12.20;99.90
12957;DHT22;6543;48.836;10.092;2024-02-16T08:54:42;12.30;99.90
12957;DHT22;6543;48.836;10.092;2024-02-16T08:57:12;12.60;99.90
12957;DHT22;6543;48.836;10.092;2024-02-16T08:59:39;12.70;99.90
12957;DHT22;6543;48.836;10.092;2024-02-16T09:02:06;13.00;99.90
12957;DHT22;6543;48.836;10.092;2024-02-16T09:04:37;13.20;99.90
12957;DHT22;6543;48.836;10.092;2024-02-16T09:07:11;14.80;99.90
12957;DHT22;6543;48.836;10.092;2024-02-16T09:09:39;13.20;99.90
12957;DHT22;6543;48.836;10.092;2024-02-16T09:12:06;15.60;99.90
12957;DHT22;6543;48.836;10.092;2024-02-16T09:14:37;13.10;99.90
12957;DHT22;6543;48.836;10.092;2024-02-16T09:17:12;13.20;99.90
12957;DHT22;6543;48.836;10.092;2024-02-16T09:19:42;10.70;99.90
12957;DHT22;6543;48.836;10.092;2024-02-16T09:22:09;11.20;99.90
12957;DHT22;6543;48.836;10.092;2024-02-16T09:24:36;13.80;99.90
12957;DHT22;6543;48.836;10.092;2024-02-16T09:27:04;13.80;99.90
12957;DHT22;6543;48.836;10.092;2024-02-16T09:29:33;13.80;99.90
12957;DHT22;6543;48.836;10.092;2024-02-16T09:32:00;16.00;99.90
12957;DHT22;6543;48.836;10.092;2024-02-16T09:34:27;14.00;99.90
12957;DHT22;6543;48.836;10.092;2024-02-16T09:36:54;14.30;99.90
12957;DHT22;6543;48.836;10.092;2024-02-16T09:39:22;14.30;99.90
12957;DHT22;6543;48.836;10.092;2024-02-16T09:41:51;16.50;99.90
12957;DHT22;6543;48.836;10.092;2024-02-16T09:44:17;12.20;99.90
12957;DHT22;6543;48.836;10.092;2024-02-16T09:46:48;14.30;99.90
12957;DHT22;6543;48.836;10.092;2024-02-16T09:49:16;14.40;99.90
12957;DHT22;6543;48.836;10.092;2024-02-16T09:51:43;14.30;99.90
12957;DHT22;6543;48.836;10.092;2024-02-16T09:54:10;14.40;99.90
12957;DHT22;6543;48.836;10.092;2024-02-16T09:56:37;14.50;99.90
12957;DHT22;6543;48.836;10.092;2024-02-16T09:59:06;14.80;99.90
12957;DHT22;6543;48.836;10.092;2024-02-16T10:01:39;14.60;99.90
12957;DHT22;6543;48.836;10.092;2024-02-16T10:04:10;14.80;99.90
12957;DHT22;6543;48.836;10.092;2024-02-16T10:06:47;15.30;99.90
12957;DHT22;6543;48.836;10.092;2024-02-16T10:09:23;17.30;99.90
12957;DHT22;6543;48.836;10.092;2024-02-16T10:11:50;16.80;99.90
12957;DHT22;6543;48.836;10.092;2024-02-16T10:14:18;15.50;99.90
12957;DHT22;6543;48.836;10.092;2024-02-16T10:16:47;15.60;99.90
12957;DHT22;6543;48.836;10.092;2024-02-16T10:19:18;17.00;99.90
12957;DHT22;6543;48.836;10.092;2024-02-16T10:21:45;16.20;99.90
12957;DHT22;6543;48.836;10.092;2024-02-16T10:24:12;16.30;99.90
12957;DHT22;6543;48.836;10.092;2024-02-16T10:26:40;16.20;99.90
12957;DHT22;6543;48.836;10.092;2024-02-16T10:29:09;16.60;99.90
12957;DHT22;6543;48.836;10.092;2024-02-16T10:31:36;16.60;99.90
12957;DHT22;6543;48.836;10.092;2024-02-16T10:34:04;17.00;99.90
12957;DHT22;6543;48.836;10.092;2024-02-16T10:36:34;17.90;99.90
12957;DHT22;6543;48.836;10.092;2024-02-16T10:39:02;18.00;99.90
12957;DHT22;6543;48.836;10.092;2024-02-16T10:41:33;16.50;99.90
12957;DHT22;6543;48.836;10.092;2024-02-16T10:44:01;16.40;99.90
12957;DHT22;6543;48.836;10.092;2024-02-16T10:46:29;16.40;99.90
12957;DHT22;6543;48.836;10.092;2024-02-16T10:48:56;16.20;99.90
12957;DHT22;6543;48.836;10.092;2024-02-16T10:51:28;16.50;99.90
12957;DHT22;6543;48.836;10.092;2024-02-16T10:54:00;16.30;99.90
12957;DHT22;6543;48.836;10.092;2024-02-16T10:56:31;16.20;99.90
12957;DHT22;6543;48.836;10.092;2024-02-16T10:59:01;16.40;99.90
12957;DHT22;6543;48.836;10.092;2024-02-16T11:01:28;16.60;99.90
12957;DHT22;6543;48.836;10.092;2024-02-16T11:04:01;16.30;99.90
12957;DHT22;6543;48.836;10.092;2024-02-16T11:06:28;16.40;99.90
12957;DHT22;6543;48.836;10.092;2024-02-16T11:09:02;16.50;99.90
12957;DHT22;6543;48.836;10.092;2024-02-16T11:11:33;16.30;99.90
12957;DHT22;6543;48.836;10.092;2024-02-16T11:14:01;16.40;99.90
12957;DHT22;6543;48.836;10.092;2024-02-16T11:16:29;16.30;99.90
12957;DHT22;6543;48.836;10.092;2024-02-16T11:18:56;16.20;99.90
12957;DHT22;6543;48.836;10.092;2024-02-16T11:21:23;16.00;99.90
12957;DHT22;6543;48.836;10.092;2024-02-16T11:23:50;16.00;99.90
12957;DHT22;6543;48.836;10.092;2024-02-16T11:26:18;16.20;99.90
12957;DHT22;6543;48.836;10.092;2024-02-16T11:28:45;16.10;99.90
12957;DHT22;6543;48.836;10.092;2024-02-16T11:31:12;16.30;99.90
12957;DHT22;6543;48.836;10.092;2024-02-16T11:33:43;16.60;99.90
12957;DHT22;6543;48.836;10.092;2024-02-16T11:36:11;16.60;99.90
12957;DHT22;6543;48.836;10.092;2024-02-16T11:38:38;16.50;99.90
12957;DHT22;6543;48.836;10.092;2024-02-16T11:41:06;16.40;99.90
12957;DHT22;6543;48.836;10.092;2024-02-16T11:43:35;17.20;99.90
12957;DHT22;6543;48.836;10.092;2024-02-16T11:46:11;16.60;99.90
12957;DHT22;6543;48.836;10.092;2024-02-16T11:48:38;16.60;99.90
12957;DHT22;6543;48.836;10.092;2024-02-16T11:51:05;16.40;99.90
12957;DHT22;6543;48.836;10.092;2024-02-16T11:53:32;16.20;99.90
12957;DHT22;6543;48.836;10.092;2024-02-16T11:55:59;16.40;99.90
12957;DHT22;6543;48.836;10.092;2024-02-16T11:58:27;16.40;99.90
12957;DHT22;6543;48.836;10.092;2024-02-16T12:00:55;16.60;99.90
12957;DHT22;6543;48.836;10.092;2024-02-16T12:03:25;16.50;99.90
12957;DHT22;6543;48.836;10.092;2024-02-16T12:05:55;16.50;99.90
12957;DHT22;6543;48.836;10.092;2024-02-16T12:08:22;16.60;99.90
12957;DHT22;6543;48.836;10.092;2024-02-16T12:10:50;16.50;99.90
12957;DHT22;6543;48.836;10.092;2024-02-16T12:13:18;16.30;99.90
12957;DHT22;6543;48.836;10.092;2024-02-16T12:15:45;16.40;99.90
12957;DHT22;6543;48.836;10.092;2024-02-16T12:18:21;16.40;99.90
12957;DHT22;6543;48.836;10.092;2024-02-16T12:21:00;16.60;99.90
12957;DHT22;6543;48.836;10.092;2024-02-16T12:23:28;16.60;99.90
12957;DHT22;6543;48.836;10.092;2024-02-16T12:25:56;16.50;99.90
12957;DHT22;6543;48.836;10.092;2024-02-16T12:28:24;16.40;99.90
12957;DHT22;6543;48.836;10.092;2024-02-16T12:30:52;16.30;99.90
12957;DHT22;6543;48.836;10.092;2024-02-16T12:33:21;16.40;99.90
12957;DHT22;6543;48.836;10.092;2024-02-16T12:35:48;16.40;99.90
12957;DHT22;6543;48.836;10.092;2024-02-16T12:38:16;16.30;99.90
12957;DHT22;6543;48.836;10.092;2024-02-16T12:40:45;16.40;99.90
12957;DHT22;6543;48.836;10.092;2024-02-16T12:43:11;16.50;99.90
12957;DHT22;6543;48.836;10.092;2024-02-16T12:45:39;16.50;99.90
12957;DHT22;6543;48.836;10.092;2024-02-16T12:48:06;16.70;99.90
12957;DHT22;6543;48.836;10.092;2024-02-16T12:50:36;16.80;99.90
12957;DHT22;6543;48.836;10.092;2024-02-16T12:53:04;16.80;99.90
12957;DHT22;6543;48.836;10.092;2024-02-16T12:55:31;17.00;99.90
12957;DHT22;6543;48.836;10.092;2024-02-16T12:57:58;17.00;99.90
12957;DHT22;6543;48.836;10.092;2024-02-16T13:00:25;16.60;99.90
12957;DHT22;6543;48.836;10.092;2024-02-16T13:02:52;16.60;99.90
12957;DHT22;6543;48.836;10.092;2024-02-16T13:05:19;16.60;99.90
12957;DHT22;6543;48.836;10.092;2024-02-16T13:07:47;16.40;99.90
12957;DHT22;6543;48.836;10.092;2024-02-16T13:10:14;16.30;99.90
12957;DHT22;6543;48.836;10.092;2024-02-16T13:12:40;16.50;99.90
12957;DHT22;6543;48.836;10.092;2024-02-16T13:15:08;16.60;99.90
12957;DHT22;6543;48.836;10.092;2024-02-16T13:17:35;16.70;99.90
12957;DHT22;6543;48.836;10.092;2024-02-16T13:20:02;16.60;99.90
12957;DHT22;6543;48.836;10.092;2024-02-16T13:22:35;16.80;99.90
12957;DHT22;6543;48.836;10.092;2024-02-16T13:25:03;16.80;99.90
12957;DHT22;6543;48.836;10.092;2024-02-16T13:27:31;16.70;99.90
12957;DHT22;6543;48.836;10.092;2024-02-16T13:29:58;16.70;99.90
12957;DHT22;6543;48.836;10.092;2024-02-16T13:32:24;16.70;99.90
12957;DHT22;6543;48.836;10.092;2024-02-16T13:34:51;16.70;99.90
12957;DHT22;6543;48.836;10.092;2024-02-16T13:37:18;16.60;99.90
12957;DHT22;6543;48.836;10.092;2024-02-16T13:39:45;16.50;99.90
12957;DHT22;6543;48.836;10.092;2024-02-16T13:42:13;16.50;99.90
12957;DHT22;6543;48.836;10.092;2024-02-16T13:44:40;16.50;99.90
12957;DHT22;6543;48.836;10.092;2024-02-16T13:47:07;16.40;99.90
12957;DHT22;6543;48.836;10.092;2024-02-16T13:49:34;16.40;99.90
12957;DHT22;6543;48.836;10.092;2024-02-16T13:52:01;16.50;99.90
12957;DHT22;6543;48.836;10.092;2024-02-16T13:54:28;16.50;99.90
12957;DHT22;6543;48.836;10.092;2024-02-16T13:56:55;16.60;99.90
12957;DHT22;6543;48.836;10.092;2024-02-16T13:59:23;16.60;99.90
12957;DHT22;6543;48.836;10.092;2024-02-16T14:01:50;16.50;99.90
12957;DHT22;6543;48.836;10.092;2024-02-16T14:04:17;16.40;99.90
12957;DHT22;6543;48.836;10.092;2024-02-16T14:06:45;16.30;99.90
12957;DHT22;6543;48.836;10.092;2024-02-16T14:09:11;16.40;99.90
12957;DHT22;6543;48.836;10.092;2024-02-16T14:11:39;16.40;99.90
12957;DHT22;6543;48.836;10.092;2024-02-16T14:14:07;16.40;99.90
12957;DHT22;6543;48.836;10.092;2024-02-16T14:16:35;16.40;99.90
12957;DHT22;6543;48.836;10.092;2024-02-16T14:19:02;16.40;99.90
12957;DHT22;6543;48.836;10.092;2024-02-16T14:21:29;16.30;99.90
12957;DHT22;6543;48.836;10.092;2024-02-16T14:23:56;16.20;99.90
12957;DHT22;6543;48.836;10.092;2024-02-16T14:26:23;16.10;99.90
12957;DHT22;6543;48.836;10.092;2024-02-16T14:28:50;16.10;99.90
12957;DHT22;6543;48.836;10.092;2024-02-16T14:31:16;16.10;99.90
12957;DHT22;6543;48.836;10.092;2024-02-16T14:33:47;16.00;99.90
12957;DHT22;6543;48.836;10.092;2024-02-16T14:36:14;16.10;99.90
12957;DHT22;6543;48.836;10.092;2024-02-16T14:38:40;16.00;99.90
12957;DHT22;6543;48.836;10.092;2024-02-16T14:41:07;15.80;99.90
12957;DHT22;6543;48.836;10.092;2024-02-16T14:43:35;15.60;99.90
12957;DHT22;6543;48.836;10.092;2024-02-16T14:46:02;15.50;99.90
12957;DHT22;6543;48.836;10.092;2024-02-16T14:48:30;15.50;99.90
12957;DHT22;6543;48.836;10.092;2024-02-16T14:50:58;15.40;99.90
12957;DHT22;6543;48.836;10.092;2024-02-16T14:53:25;15.40;99.90
12957;DHT22;6543;48.836;10.092;2024-02-16T14:55:51;15.50;99.90
12957;DHT22;6543;48.836;10.092;2024-02-16T14:58:18;15.40;99.90
12957;DHT22;6543;48.836;10.092;2024-02-16T15:00:45;15.30;99.90
12957;DHT22;6543;48.836;10.092;2024-02-16T15:03:12;15.20;99.90
12957;DHT22;6543;48.836;10.092;2024-02-16T15:05:39;15.10;99.90
12957;DHT22;6543;48.836;10.092;2024-02-16T15:08:07;15.10;99.90
12957;DHT22;6543;48.836;10.092;2024-02-16T15:10:35;15.10;99.90
12957;DHT22;6543;48.836;10.092;2024-02-16T15:13:01;15.10;99.90
12957;DHT22;6543;48.836;10.092;2024-02-16T15:15:28;15.10;99.90
12957;DHT22;6543;48.836;10.092;2024-02-16T15:17:55;15.10;99.90
12957;DHT22;6543;48.836;10.092;2024-02-16T15:20:25;15.10;99.90
12957;DHT22;6543;48.836;10.092;2024-02-16T15:22:52;15.00;99.90
12957;DHT22;6543;48.836;10.092;2024-02-16T15:25:21;15.00;99.90
12957;DHT22;6543;48.836;10.092;2024-02-16T15:27:48;15.00;99.90
12957;DHT22;6543;48.836;10.092;2024-02-16T15:30:16;15.00;99.90
12957;DHT22;6543;48.836;10.092;2024-02-16T15:32:43;15.00;99.90
12957;DHT22;6543;48.836;10.092;2024-02-16T15:35:09;15.00;99.90
12957;DHT22;6543;48.836;10.092;2024-02-16T15:37:36;14.90;99.90
12957;DHT22;6543;48.836;10.092;2024-02-16T15:40:04;14.90;99.90
12957;DHT22;6543;48.836;10.092;2024-02-16T15:42:33;14.90;99.90